Averill, Minnesota
Current Conditions -  °F | °C
As of 4:11 AM on Sunday 25 Jan 2015 (Local Time) from KJKJ Reporting Station
Scattered Clouds Scattered Clouds  
Wind Chill: 12°   Ceiling: Unl
Heat Index: 21°   Visibility: 10mi
Dew Point: 19°   Wind: 8mph
Humidity: 93%   Direction: 360°N
Pressure: 29.93"   Gusts: NA
Location:  46.8905°N, 96.5417°W
Report Text: KJKJ 251011Z AUTO 36007KT 10SM SCT085 M06/M07 A2993 RMK AO2
Loading
Personal Weather Stations






























Interactive Weather Map New forecast layout! Learn more

10-Day Weather Forecast

Advertisements
Track Severe Weather on mobile